createdAt,value
2023-02-23T00:02:30.356Z,24.38
2023-02-23T00:07:36.690Z,22.52
2023-02-23T00:12:39.534Z,24.83
2023-02-23T00:17:42.565Z,24.55
2023-02-23T00:22:46.652Z,24.00
2023-02-23T00:27:50.241Z,23.77
2023-02-23T00:32:53.464Z,24.55
2023-02-23T00:37:57.555Z,25.02
2023-02-23T00:43:01.648Z,26.80
2023-02-23T00:48:10.690Z,27.20
2023-02-23T00:53:16.683Z,25.08
2023-02-23T00:58:19.686Z,26.33
2023-02-23T01:03:22.516Z,28.35
2023-02-23T01:08:27.894Z,29.23
2023-02-23T01:13:30.716Z,27.38
2023-02-23T01:18:34.719Z,27.50
2023-02-23T01:23:39.065Z,29.15
2023-02-23T01:28:42.458Z,30.52
2023-02-23T01:33:45.977Z,30.25
2023-02-23T01:38:50.312Z,30.08
2023-02-23T01:43:58.091Z,32.28
2023-02-23T01:49:01.294Z,35.53
2023-02-23T01:54:10.902Z,34.90
2023-02-23T01:59:16.667Z,36.08
2023-02-23T02:04:20.750Z,38.78
2023-02-23T02:09:28.285Z,39.78
2023-02-23T02:14:32.275Z,38.72
2023-02-23T02:20:26.472Z,38.97
2023-02-23T02:25:44.547Z,41.83
2023-02-23T02:31:37.372Z,39.92
2023-02-23T02:37:19.271Z,41.25
2023-02-23T02:42:34.035Z,38.22
2023-02-23T02:47:40.640Z,45.17
2023-02-23T02:52:54.204Z,46.03
2023-02-23T02:58:02.187Z,47.08
2023-02-23T03:03:23.515Z,48.83
2023-02-23T03:08:52.015Z,46.08
2023-02-23T03:14:24.573Z,47.03
2023-02-23T03:19:47.611Z,47.20
2023-02-23T03:25:16.235Z,48.30
2023-02-23T03:30:44.604Z,48.97
2023-02-23T03:36:10.836Z,47.20
2023-02-23T03:41:36.397Z,50.38
2023-02-23T03:46:58.501Z,50.42
2023-02-23T03:52:25.785Z,49.57
2023-02-23T03:57:49.987Z,52.38
2023-02-23T04:03:13.598Z,54.00
2023-02-23T04:08:38.313Z,53.08
2023-02-23T04:13:46.329Z,57.28
2023-02-23T04:18:49.170Z,54.90
2023-02-23T04:23:52.135Z,56.17
2023-02-23T04:28:56.292Z,57.88
2023-02-23T04:33:59.075Z,59.92
2023-02-23T04:39:01.875Z,61.03
2023-02-23T04:44:06.247Z,61.80
2023-02-23T04:49:09.045Z,64.40
2023-02-23T04:54:11.942Z,66.50
2023-02-23T04:59:16.141Z,64.47
2023-02-23T05:04:18.928Z,69.00
2023-02-23T05:09:21.775Z,66.55
2023-02-23T05:14:27.103Z,69.13
2023-02-23T05:19:30.081Z,70.18
2023-02-23T05:24:32.968Z,77.22
2023-02-23T05:29:37.294Z,83.47
2023-02-23T05:34:41.019Z,77.50
2023-02-23T05:39:43.780Z,74.95
2023-02-23T05:44:47.954Z,72.40
2023-02-23T05:49:50.710Z,67.60
2023-02-23T05:54:53.502Z,70.13
2023-02-23T05:59:57.696Z,69.30
2023-02-23T06:05:00.459Z,71.80
2023-02-23T06:10:07.281Z,75.03
2023-02-23T06:15:35.910Z,73.55
2023-02-23T06:20:40.440Z,75.88
2023-02-23T06:25:43.367Z,77.00
2023-02-23T06:30:48.673Z,77.13
2023-02-23T06:35:51.516Z,78.00
2023-02-23T06:40:54.501Z,76.95
2023-02-23T06:45:58.645Z,77.78
2023-02-23T06:51:01.788Z,80.93
2023-02-23T06:56:05.462Z,78.50
2023-02-23T07:01:09.938Z,77.80
2023-02-23T07:06:12.752Z,76.63
2023-02-23T07:11:18.761Z,75.72
2023-02-23T07:16:24.182Z,74.80
2023-02-23T07:21:27.104Z,58.58
2023-02-23T07:26:29.998Z,63.67
2023-02-23T07:31:34.279Z,56.08
2023-02-23T07:36:37.505Z,57.38
2023-02-23T07:41:40.346Z,51.40
2023-02-23T07:46:54.780Z,56.47
2023-02-23T07:51:57.962Z,55.47
2023-02-23T07:57:37.893Z,54.55
2023-02-23T08:02:42.337Z,57.67
2023-02-23T08:07:45.387Z,58.60
2023-02-23T08:12:48.155Z,64.20
2023-02-23T08:17:52.672Z,68.55
2023-02-23T08:22:55.886Z,69.82
2023-02-23T08:28:04.803Z,72.60
2023-02-23T08:33:09.005Z,72.07
2023-02-23T08:38:11.777Z,73.10
2023-02-23T08:43:14.487Z,72.22
2023-02-23T08:48:18.647Z,74.80
2023-02-23T08:53:23.165Z,74.47
2023-02-23T08:58:26.020Z,76.63
2023-02-23T09:03:31.153Z,75.70
2023-02-23T09:08:33.942Z,76.40
2023-02-23T09:13:37.041Z,73.93
2023-02-23T09:18:42.212Z,69.85
2023-02-23T09:23:45.955Z,67.07
2023-02-23T09:28:49.021Z,66.95
2023-02-23T09:33:54.288Z,67.72
2023-02-23T09:38:57.801Z,66.28
2023-02-23T09:44:03.815Z,65.70
2023-02-23T09:49:16.470Z,65.93
2023-02-23T09:59:25.024Z,57.47
2023-02-23T10:04:32.287Z,55.22
2023-02-23T10:09:52.236Z,51.63
2023-02-23T10:15:16.956Z,49.58
2023-02-23T10:20:28.258Z,47.75
2023-02-23T10:25:36.516Z,46.50
2023-02-23T10:30:42.201Z,45.97
2023-02-23T10:35:47.192Z,46.13
2023-02-23T10:40:55.048Z,45.70
2023-02-23T10:45:57.882Z,45.10
2023-02-23T10:51:04.392Z,43.58
2023-02-23T10:56:10.798Z,47.65
2023-02-23T11:01:14.895Z,46.10
2023-02-23T11:06:32.776Z,43.75
2023-02-23T11:11:35.620Z,43.42
2023-02-23T11:16:40.374Z,43.53
2023-02-23T11:21:52.430Z,43.13
2023-02-23T11:27:00.296Z,43.10
2023-02-23T11:32:10.528Z,51.30
2023-02-23T11:37:23.346Z,44.53
2023-02-23T11:47:31.535Z,42.15
2023-02-23T11:52:36.515Z,42.40
2023-02-23T11:57:39.430Z,44.03
2023-02-23T12:02:51.927Z,43.65
2023-02-23T12:08:02.336Z,41.35
2023-02-23T12:13:17.937Z,42.38
2023-02-23T12:18:37.896Z,42.35
2023-02-23T12:23:48.649Z,42.35
2023-02-23T12:28:58.811Z,45.67
2023-02-23T12:34:05.294Z,43.70
2023-02-23T12:39:18.535Z,41.85
2023-02-23T12:44:33.289Z,45.67
2023-02-23T12:49:42.508Z,44.63
2023-02-23T12:54:47.977Z,45.85
2023-02-23T13:00:20.466Z,48.25
2023-02-23T13:05:28.487Z,47.42
2023-02-23T13:10:41.659Z,46.83
2023-02-23T13:16:01.047Z,47.33
2023-02-23T13:21:12.774Z,47.05
2023-02-23T13:26:28.697Z,47.15
2023-02-23T13:31:35.286Z,47.25
2023-02-23T13:36:40.703Z,47.67
2023-02-23T13:41:56.962Z,48.80
2023-02-23T13:47:10.634Z,47.72
2023-02-23T13:52:24.079Z,40.33
2023-02-23T13:57:29.185Z,35.58
2023-02-23T14:02:36.488Z,34.00
2023-02-23T14:07:42.593Z,29.77
2023-02-23T14:13:07.109Z,31.20
2023-02-23T14:18:34.458Z,29.30
2023-02-23T14:23:51.498Z,28.77
2023-02-23T14:29:25.742Z,28.17
2023-02-23T14:34:47.145Z,30.08
2023-02-23T14:39:51.604Z,29.63
2023-02-23T14:44:57.347Z,30.83
2023-02-23T14:50:02.493Z,28.85
2023-02-23T14:55:20.996Z,30.10
2023-02-23T15:00:27.484Z,29.50
2023-02-23T15:05:32.604Z,30.00
2023-02-23T15:10:38.267Z,26.52
2023-02-23T15:15:46.500Z,24.30
2023-02-23T15:20:50.228Z,23.15
2023-02-23T15:25:53.109Z,23.23
2023-02-23T15:31:00.842Z,23.27
2023-02-23T15:36:09.196Z,26.13
2023-02-23T15:41:19.616Z,23.92
2023-02-23T15:46:27.726Z,23.00
2023-02-23T15:51:36.127Z,22.55
2023-02-23T15:56:39.000Z,22.30
2023-02-23T16:01:46.301Z,22.60
2023-02-23T16:06:54.533Z,23.48
2023-02-23T16:12:02.717Z,21.90
2023-02-23T16:17:11.688Z,23.35
2023-02-23T16:22:22.658Z,25.98
2023-02-23T16:27:27.478Z,24.83
2023-02-23T16:32:38.885Z,22.48
2023-02-23T16:37:58.195Z,20.67
2023-02-23T16:43:01.105Z,20.55
2023-02-23T16:48:11.599Z,22.23
2023-02-23T16:53:15.298Z,21.88
2023-02-23T16:58:21.913Z,21.35
2023-02-23T17:03:27.851Z,23.65
2023-02-23T17:08:31.690Z,22.35
2023-02-23T17:13:35.477Z,21.15
2023-02-23T17:18:42.790Z,21.90
2023-02-23T17:23:50.892Z,20.60
2023-02-23T17:28:54.030Z,20.27
2023-02-23T17:33:58.387Z,20.58
2023-02-23T17:39:01.871Z,23.92
2023-02-23T17:44:05.893Z,23.08
2023-02-23T17:49:10.108Z,24.40
2023-02-23T17:54:12.950Z,24.50
2023-02-23T17:59:15.855Z,24.70
2023-02-23T18:04:20.019Z,26.20
2023-02-23T18:09:22.806Z,27.90
2023-02-23T18:14:25.613Z,27.10
2023-02-23T18:19:30.562Z,26.42
2023-02-23T18:24:33.374Z,26.85
2023-02-23T18:29:37.211Z,29.10
2023-02-23T18:34:41.415Z,26.85
2023-02-23T18:39:44.205Z,25.10
2023-02-23T18:44:47.120Z,28.08
2023-02-23T18:49:52.706Z,28.48
2023-02-23T18:54:55.761Z,28.35
2023-02-23T18:59:58.639Z,29.50
2023-02-23T19:05:03.088Z,30.63
2023-02-23T19:10:09.030Z,29.98
2023-02-23T19:15:12.304Z,31.90
2023-02-23T19:20:17.187Z,31.48
2023-02-23T19:25:20.025Z,33.35
2023-02-23T19:30:22.891Z,33.30
2023-02-23T19:35:27.043Z,29.42
2023-02-23T19:40:30.878Z,30.90
2023-02-23T19:45:33.758Z,11.88
2023-02-23T19:50:37.984Z,7.60
2023-02-23T19:55:41.721Z,7.78
2023-02-23T20:00:46.989Z,6.63
2023-02-23T20:05:51.175Z,7.53
2023-02-23T20:10:54.088Z,7.45
2023-02-23T20:16:02.075Z,7.93
2023-02-23T20:21:10.281Z,9.52
2023-02-23T20:26:16.472Z,8.75
2023-02-23T20:31:21.996Z,9.15
2023-02-23T20:36:26.894Z,8.80
2023-02-23T20:41:31.492Z,7.38
2023-02-23T20:46:34.287Z,7.90
2023-02-23T20:51:40.094Z,7.03
2023-02-23T20:56:44.547Z,5.45
2023-02-23T21:01:47.563Z,6.53
2023-02-23T21:06:51.773Z,6.03
2023-02-23T21:11:55.387Z,6.25
2023-02-23T21:16:58.655Z,5.57
2023-02-23T21:22:04.307Z,7.30
2023-02-23T21:27:12.617Z,7.07
2023-02-23T21:32:16.720Z,7.40
2023-02-23T21:37:21.031Z,6.40
2023-02-23T21:42:24.080Z,7.28
2023-02-23T21:47:27.003Z,6.07
2023-02-23T21:52:31.382Z,7.03
2023-02-23T21:57:34.239Z,6.43
2023-02-23T22:02:40.945Z,6.95
2023-02-23T22:07:51.236Z,7.70
2023-02-23T22:12:55.831Z,6.72
2023-02-23T22:17:58.791Z,9.30
2023-02-23T22:23:03.452Z,7.00
2023-02-23T22:28:09.028Z,7.07
2023-02-23T22:33:12.167Z,7.18
2023-02-23T22:38:19.068Z,6.70
2023-02-23T22:43:22.778Z,9.13
2023-02-23T22:48:28.375Z,5.18
2023-02-23T22:53:33.429Z,6.82
2023-02-23T22:58:36.735Z,5.22
2023-02-23T23:03:41.448Z,5.50
2023-02-23T23:08:49.040Z,4.70
2023-02-23T23:13:53.656Z,5.57
2023-02-23T23:18:58.304Z,5.78
2023-02-23T23:24:05.689Z,5.00
2023-02-23T23:29:11.243Z,5.93
2023-02-23T23:34:16.476Z,6.38
2023-02-23T23:39:23.205Z,5.88
2023-02-23T23:44:29.102Z,5.75
2023-02-23T23:49:35.697Z,5.03
2023-02-23T23:54:41.177Z,4.90
2023-02-23T23:59:46.143Z,4.80
